Detroit, Oregon
Current Conditions -  °F | °C
As of 10:56 AM on Monday 20 Oct 2014 (Local Time) from KSLE Reporting Station
Overcast Overcast  
Wind Chill: 58°   Ceiling: 3800
Heat Index: 58°   Visibility: 10mi
Dew Point: 55°   Wind: 13mph
Humidity: 90%   Direction: 160°SSE
Pressure: 29.79"   Gusts: NA
Location:  44.73°N, 122.15°W
Report Text: KSLE 201756Z 16011KT 10SM SCT014 BKN038 OVC080 14/13 A2979 RMK AO2 RAB1659E39 SLP089 P0007 60018 T01440128 10150 20144 51013
Loading
Personal Weather Stations






























Interactive Weather Map New forecast layout! Learn more

10-Day Weather Forecast

Advertisements
Track Severe Weather on mobile